createdAt,value
2022-12-26T00:00:58.890Z,23.37
2022-12-26T00:03:27.312Z,24.07
2022-12-26T00:05:56.785Z,23.77
2022-12-26T00:08:24.864Z,23.53
2022-12-26T00:10:52.976Z,23.37
2022-12-26T00:13:39.042Z,23.87
2022-12-26T00:16:09.612Z,23.23
2022-12-26T00:18:38.002Z,22.83
2022-12-26T00:21:07.797Z,21.80
2022-12-26T00:23:36.098Z,21.37
2022-12-26T00:26:05.280Z,21.93
2022-12-26T00:28:33.354Z,23.03
2022-12-26T00:31:04.873Z,22.67
2022-12-26T00:33:32.946Z,22.77
2022-12-26T00:36:02.798Z,24.00
2022-12-26T00:38:32.295Z,23.17
2022-12-26T00:41:00.377Z,23.17
2022-12-26T00:43:28.517Z,23.40
2022-12-26T00:45:56.677Z,25.43
2022-12-26T00:48:24.924Z,25.27
2022-12-26T00:50:53.069Z,25.73
2022-12-26T00:53:21.411Z,25.33
2022-12-26T00:55:51.464Z,22.97
2022-12-26T00:58:19.757Z,25.27
2022-12-26T01:00:48.078Z,25.60
2022-12-26T01:03:16.428Z,24.20
2022-12-26T01:05:44.689Z,24.83
2022-12-26T01:08:23.584Z,24.37
2022-12-26T01:10:53.892Z,24.70
2022-12-26T01:13:22.084Z,24.73
2022-12-26T01:15:50.988Z,26.83
2022-12-26T01:18:19.307Z,26.57
2022-12-26T01:20:47.384Z,23.60
2022-12-26T01:23:15.640Z,25.60
2022-12-26T01:26:15.250Z,26.87
2022-12-26T01:28:33.153Z,25.30
2022-12-26T01:31:03.320Z,24.83
2022-12-26T01:33:31.496Z,24.17
2022-12-26T01:35:59.764Z,25.80
2022-12-26T01:38:27.839Z,24.80
2022-12-26T01:41:09.906Z,25.47
2022-12-26T01:43:53.803Z,25.63
2022-12-26T01:46:23.634Z,26.40
2022-12-26T01:48:52.195Z,26.80
2022-12-26T01:51:20.336Z,27.53
2022-12-26T01:53:49.094Z,26.83
2022-12-26T01:56:20.173Z,26.23
2022-12-26T01:58:50.238Z,26.07
2022-12-26T02:01:19.804Z,25.87
2022-12-26T02:04:05.166Z,25.80
2022-12-26T02:06:33.309Z,26.10
2022-12-26T02:09:01.436Z,26.40
2022-12-26T02:11:32.930Z,25.63
2022-12-26T02:14:01.096Z,26.17
2022-12-26T02:16:30.892Z,24.77
2022-12-26T02:18:59.016Z,26.77
2022-12-26T02:21:35.837Z,26.40
2022-12-26T02:24:30.142Z,28.07
2022-12-26T02:27:20.189Z,29.30
2022-12-26T02:30:12.046Z,27.50
2022-12-26T02:33:07.168Z,28.73
2022-12-26T02:36:03.528Z,28.37
2022-12-26T02:38:36.060Z,28.23
2022-12-26T02:41:10.695Z,28.73
2022-12-26T02:43:41.505Z,31.77
2022-12-26T02:46:30.627Z,53.90
2022-12-26T02:49:05.346Z,64.77
2022-12-26T02:52:08.937Z,58.73
2022-12-26T02:54:56.335Z,62.87
2022-12-26T02:57:42.459Z,64.67
2022-12-26T03:00:31.145Z,66.93
2022-12-26T03:03:18.950Z,82.03
2022-12-26T03:06:07.197Z,76.33
2022-12-26T03:08:53.768Z,83.43
2022-12-26T03:11:50.790Z,76.47
2022-12-26T03:14:20.349Z,63.83
2022-12-26T03:17:07.913Z,56.73
2022-12-26T03:19:36.044Z,48.90
2022-12-26T03:22:26.051Z,35.57
2022-12-26T03:25:08.488Z,36.60
2022-12-26T03:27:36.751Z,33.60
2022-12-26T03:30:23.293Z,30.80
2022-12-26T03:32:51.561Z,31.10
2022-12-26T03:35:18.624Z,29.70
2022-12-26T03:37:51.242Z,29.43
2022-12-26T03:40:47.700Z,31.57
2022-12-26T03:43:37.890Z,31.20
2022-12-26T03:46:28.039Z,31.00
2022-12-26T03:49:15.475Z,30.80
2022-12-26T03:51:59.762Z,31.00
2022-12-26T03:54:49.781Z,31.40
2022-12-26T03:57:37.480Z,29.70
2022-12-26T04:00:24.643Z,30.80
2022-12-26T04:03:10.404Z,31.60
2022-12-26T04:06:05.866Z,30.93
2022-12-26T04:08:55.928Z,30.83
2022-12-26T04:11:42.600Z,29.97
2022-12-26T04:14:30.145Z,29.50
2022-12-26T04:17:18.519Z,32.77
2022-12-26T04:19:56.428Z,38.13
2022-12-26T04:22:43.954Z,44.17
2022-12-26T04:25:49.008Z,36.40
2022-12-26T04:28:38.116Z,38.20
2022-12-26T04:31:25.509Z,42.43
2022-12-26T04:34:12.225Z,47.20
2022-12-26T04:37:00.265Z,51.00
2022-12-26T04:39:48.605Z,49.30
2022-12-26T04:42:34.496Z,51.77
2022-12-26T04:45:04.109Z,54.57
2022-12-26T04:47:32.392Z,53.40
2022-12-26T04:50:20.116Z,50.13
2022-12-26T04:52:58.974Z,53.40
2022-12-26T04:55:27.650Z,51.10
2022-12-26T04:57:56.009Z,55.10
2022-12-26T05:00:26.058Z,51.57
2022-12-26T05:03:17.977Z,50.90
2022-12-26T05:06:06.108Z,53.07
2022-12-26T05:08:53.173Z,52.67
2022-12-26T05:11:21.246Z,52.43
2022-12-26T05:13:49.334Z,52.43
2022-12-26T05:16:36.272Z,49.43
2022-12-26T05:19:21.740Z,48.13
2022-12-26T05:22:07.485Z,39.23
2022-12-26T05:24:54.120Z,32.17
2022-12-26T05:27:39.688Z,28.17
2022-12-26T05:30:09.013Z,31.20
2022-12-26T05:32:55.870Z,30.53
2022-12-26T05:35:23.936Z,30.40
2022-12-26T05:37:52.058Z,28.60
2022-12-26T05:40:20.199Z,27.33
2022-12-26T05:42:48.342Z,25.77
2022-12-26T05:45:16.492Z,25.37
2022-12-26T05:47:49.981Z,24.03
2022-12-26T05:50:20.036Z,23.47
2022-12-26T05:52:48.165Z,22.87
2022-12-26T05:55:16.429Z,24.73
2022-12-26T05:57:44.579Z,24.70
2022-12-26T06:00:13.953Z,25.50
2022-12-26T06:02:42.230Z,26.20
2022-12-26T06:05:12.029Z,26.40
2022-12-26T06:07:40.144Z,24.70
2022-12-26T06:10:08.927Z,20.60
2022-12-26T06:12:37.160Z,20.60
2022-12-26T06:15:05.949Z,20.90
2022-12-26T06:17:34.088Z,20.07
2022-12-26T06:20:02.170Z,19.67
2022-12-26T06:22:31.731Z,18.50
2022-12-26T06:24:59.789Z,20.33
2022-12-26T06:27:27.872Z,19.37
2022-12-26T06:29:55.927Z,17.53
2022-12-26T06:32:24.007Z,18.30
2022-12-26T06:34:52.214Z,18.67
2022-12-26T06:37:20.313Z,17.30
2022-12-26T06:39:49.766Z,18.60
2022-12-26T06:42:17.882Z,18.97
2022-12-26T06:44:46.010Z,19.67
2022-12-26T06:47:14.209Z,17.93
2022-12-26T06:49:42.338Z,16.90
2022-12-26T06:52:12.161Z,16.73
2022-12-26T06:54:40.465Z,16.70
2022-12-26T06:57:10.227Z,15.57
2022-12-26T06:59:38.329Z,15.27
2022-12-26T07:02:06.486Z,15.93
2022-12-26T07:04:34.682Z,15.13
2022-12-26T07:07:02.872Z,13.93
2022-12-26T07:09:33.859Z,13.30
2022-12-26T07:12:02.306Z,13.67
2022-12-26T07:14:31.896Z,13.97
2022-12-26T07:17:00.106Z,13.80
2022-12-26T07:19:28.200Z,12.80
2022-12-26T07:21:56.315Z,12.30
2022-12-26T07:24:24.570Z,11.53
2022-12-26T07:26:52.669Z,11.73
2022-12-26T07:29:21.984Z,11.53
2022-12-26T07:31:51.415Z,12.23
2022-12-26T07:34:19.553Z,10.83
2022-12-26T07:36:47.862Z,11.57
2022-12-26T07:39:16.057Z,10.40
2022-12-26T07:41:59.025Z,10.73
2022-12-26T07:44:27.467Z,11.57
2022-12-26T07:46:56.979Z,11.50
2022-12-26T07:49:25.075Z,11.83
2022-12-26T07:51:53.235Z,11.43
2022-12-26T07:54:21.471Z,11.10
2022-12-26T07:56:49.680Z,12.93
2022-12-26T07:59:18.529Z,11.90
2022-12-26T08:01:46.778Z,11.68
2022-12-26T08:04:16.384Z,12.38
2022-12-26T08:06:44.545Z,12.30
2022-12-26T08:09:15.992Z,10.67
2022-12-26T08:11:44.390Z,12.68
2022-12-26T08:14:12.774Z,12.07
2022-12-26T08:16:41.124Z,11.37
2022-12-26T08:19:09.281Z,10.43
2022-12-26T08:21:38.721Z,11.03
2022-12-26T08:24:07.252Z,11.17
2022-12-26T08:26:35.308Z,11.57
2022-12-26T08:29:03.520Z,10.50
2022-12-26T08:31:31.702Z,10.77
2022-12-26T08:33:59.809Z,11.33
2022-12-26T08:36:27.873Z,12.07
2022-12-26T08:38:57.678Z,11.17
2022-12-26T08:41:25.740Z,11.77
2022-12-26T08:46:42.376Z,11.30
2022-12-26T08:49:10.438Z,11.67
2022-12-26T08:51:38.687Z,11.33
2022-12-26T08:54:08.695Z,13.02
2022-12-26T08:56:36.741Z,12.70
2022-12-26T08:59:04.859Z,12.48
2022-12-26T09:01:33.117Z,13.38
2022-12-26T09:04:02.488Z,12.82
2022-12-26T09:06:30.691Z,12.63
2022-12-26T09:08:59.873Z,13.35
2022-12-26T09:11:29.438Z,12.90
2022-12-26T09:13:58.339Z,12.50
2022-12-26T09:16:31.498Z,12.93
2022-12-26T09:19:02.685Z,14.10
2022-12-26T09:21:30.942Z,13.60
2022-12-26T09:23:59.763Z,14.47
2022-12-26T09:26:30.449Z,14.73
2022-12-26T09:28:58.807Z,16.93
2022-12-26T09:31:28.486Z,18.73
2022-12-26T09:33:56.595Z,19.67
2022-12-26T09:36:25.793Z,20.83
2022-12-26T09:38:54.334Z,16.17
2022-12-26T09:41:32.930Z,18.47
2022-12-26T09:44:04.551Z,15.87
2022-12-26T09:46:33.951Z,17.47
2022-12-26T09:49:04.201Z,15.33
2022-12-26T09:51:32.982Z,16.77
2022-12-26T09:54:01.245Z,15.57
2022-12-26T09:59:20.170Z,17.50
2022-12-26T10:01:49.340Z,15.33
2022-12-26T10:04:28.559Z,18.50
2022-12-26T10:07:03.455Z,14.50
2022-12-26T10:09:50.243Z,16.57
2022-12-26T10:12:36.123Z,17.27
2022-12-26T10:15:19.807Z,17.00
2022-12-26T10:17:50.724Z,18.23
2022-12-26T10:20:23.938Z,19.37
2022-12-26T10:23:17.609Z,17.57
2022-12-26T10:25:47.392Z,16.40
2022-12-26T10:28:25.438Z,19.57
2022-12-26T10:30:55.211Z,18.20
2022-12-26T10:33:30.837Z,18.77
2022-12-26T10:35:58.968Z,20.43
2022-12-26T10:38:30.460Z,20.77
2022-12-26T10:41:01.832Z,18.90
2022-12-26T10:43:32.724Z,23.88
2022-12-26T10:46:17.727Z,20.47
2022-12-26T10:48:46.947Z,19.73
2022-12-26T10:51:15.025Z,23.20
2022-12-26T10:53:44.520Z,21.20
2022-12-26T10:56:16.468Z,21.63
2022-12-26T10:58:46.921Z,23.13
2022-12-26T11:01:36.427Z,19.63
2022-12-26T11:04:06.202Z,16.07
2022-12-26T11:06:38.464Z,19.37
2022-12-26T11:09:06.675Z,18.03
2022-12-26T11:11:46.754Z,22.83
2022-12-26T11:14:37.017Z,19.83
2022-12-26T11:17:08.359Z,16.97
2022-12-26T11:19:37.647Z,17.70
2022-12-26T11:22:26.552Z,18.40
2022-12-26T11:25:14.492Z,15.67
2022-12-26T11:27:44.017Z,17.73
2022-12-26T11:30:21.320Z,13.37
2022-12-26T11:32:52.440Z,12.57
2022-12-26T11:35:21.177Z,14.00
2022-12-26T11:37:51.958Z,15.60
2022-12-26T11:40:21.323Z,15.03
2022-12-26T11:42:51.192Z,17.37
2022-12-26T11:45:23.445Z,16.20
2022-12-26T11:47:52.953Z,15.47
2022-12-26T11:50:22.191Z,20.80
2022-12-26T11:52:52.863Z,22.07
2022-12-26T11:55:32.747Z,18.80
2022-12-26T11:58:06.578Z,12.80
2022-12-26T12:00:35.258Z,12.03
2022-12-26T12:03:05.118Z,16.77
2022-12-26T12:05:39.352Z,12.33
2022-12-26T12:08:25.521Z,12.53
2022-12-26T12:11:01.721Z,14.03
2022-12-26T12:13:36.987Z,11.97
2022-12-26T12:16:09.292Z,11.83
2022-12-26T12:18:44.965Z,13.23
2022-12-26T12:21:16.150Z,11.63
2022-12-26T12:24:18.509Z,13.00
2022-12-26T12:26:54.452Z,10.43
2022-12-26T12:29:50.669Z,12.53
2022-12-26T12:32:19.496Z,10.73
2022-12-26T12:35:02.707Z,12.80
2022-12-26T12:37:34.874Z,12.80
2022-12-26T12:40:06.323Z,10.03
2022-12-26T12:42:41.738Z,11.13
2022-12-26T12:45:27.898Z,10.57
2022-12-26T12:48:14.314Z,11.97
2022-12-26T12:50:45.504Z,11.77
2022-12-26T12:53:19.924Z,10.63
2022-12-26T12:56:01.813Z,10.90
2022-12-26T12:58:34.276Z,11.80
2022-12-26T13:01:05.234Z,11.53
2022-12-26T13:03:35.974Z,10.67
2022-12-26T13:06:07.840Z,9.43
2022-12-26T13:08:38.072Z,9.87
2022-12-26T13:11:08.967Z,9.33
2022-12-26T13:13:38.618Z,10.33
2022-12-26T13:16:11.555Z,9.33
2022-12-26T13:18:41.647Z,9.63
2022-12-26T13:21:12.392Z,9.88
2022-12-26T13:24:00.257Z,9.93
2022-12-26T13:26:30.944Z,9.93
2022-12-26T13:29:01.197Z,9.80
2022-12-26T13:31:33.568Z,10.60
2022-12-26T13:34:02.063Z,8.83
2022-12-26T13:36:42.957Z,8.93
2022-12-26T13:39:31.775Z,9.47
2022-12-26T13:42:20.461Z,8.67
2022-12-26T13:44:53.418Z,10.30
2022-12-26T13:47:35.693Z,9.27
2022-12-26T13:50:47.216Z,8.93
2022-12-26T13:53:32.618Z,8.70
2022-12-26T13:56:02.393Z,8.10
2022-12-26T13:58:48.954Z,9.40
2022-12-26T14:01:28.485Z,8.80
2022-12-26T14:04:03.865Z,8.30
2022-12-26T14:06:52.006Z,9.37
2022-12-26T14:09:35.013Z,9.00
2022-12-26T14:12:19.758Z,9.00
2022-12-26T14:14:58.706Z,8.87
2022-12-26T14:17:33.892Z,9.40
2022-12-26T14:20:07.097Z,8.57
2022-12-26T14:22:43.183Z,9.80
2022-12-26T14:25:18.339Z,9.93
2022-12-26T14:27:48.349Z,9.27
2022-12-26T14:30:22.684Z,9.43
2022-12-26T14:33:07.833Z,9.93
2022-12-26T14:35:38.841Z,10.82
2022-12-26T14:38:15.042Z,9.63
2022-12-26T14:40:59.513Z,9.77
2022-12-26T14:43:37.589Z,8.50
2022-12-26T14:46:09.856Z,9.77
2022-12-26T14:48:56.934Z,9.23
2022-12-26T14:51:30.692Z,9.83
2022-12-26T14:54:33.515Z,9.73
2022-12-26T14:57:03.241Z,9.67
2022-12-26T14:59:32.298Z,9.27
2022-12-26T15:02:12.548Z,10.50
2022-12-26T15:05:05.167Z,9.73
2022-12-26T15:08:21.294Z,9.33
2022-12-26T15:11:14.316Z,9.10
2022-12-26T15:14:09.375Z,10.13
2022-12-26T15:16:51.165Z,9.80
2022-12-26T15:19:46.793Z,9.23
2022-12-26T15:22:39.717Z,9.90
2022-12-26T15:25:30.559Z,10.63
2022-12-26T15:28:35.247Z,9.43
2022-12-26T15:31:20.660Z,9.90
2022-12-26T15:33:52.086Z,9.37
2022-12-26T15:36:23.869Z,9.53
2022-12-26T15:38:55.439Z,9.50
2022-12-26T15:41:29.794Z,9.43
2022-12-26T15:44:09.843Z,9.90
2022-12-26T15:46:41.821Z,8.93
2022-12-26T15:49:21.299Z,9.57
2022-12-26T15:51:56.109Z,9.80
2022-12-26T15:54:48.056Z,10.60
2022-12-26T15:57:18.861Z,10.23
2022-12-26T16:00:10.889Z,10.30
2022-12-26T16:02:42.607Z,10.30
2022-12-26T16:05:28.067Z,11.43
2022-12-26T16:07:59.915Z,11.47
2022-12-26T16:10:30.308Z,10.83
2022-12-26T16:13:04.701Z,10.97
2022-12-26T16:15:33.301Z,11.57
2022-12-26T16:18:15.828Z,11.47
2022-12-26T16:21:01.229Z,11.67
2022-12-26T16:23:31.707Z,11.30
2022-12-26T16:26:00.782Z,12.10
2022-12-26T16:28:30.328Z,12.80
2022-12-26T16:30:58.525Z,12.50
2022-12-26T16:33:29.954Z,13.47
2022-12-26T16:36:01.115Z,13.43
2022-12-26T16:38:30.920Z,13.03
2022-12-26T16:41:00.560Z,13.67
2022-12-26T16:43:29.660Z,14.13
2022-12-26T16:46:00.602Z,12.93
2022-12-26T16:48:31.504Z,13.17
2022-12-26T16:51:00.587Z,13.33
2022-12-26T16:53:43.415Z,13.10
2022-12-26T16:56:26.650Z,13.37
2022-12-26T16:59:04.050Z,13.37
2022-12-26T17:01:33.107Z,13.13
2022-12-26T17:04:04.462Z,13.27
2022-12-26T17:06:34.199Z,13.93
2022-12-26T17:09:06.556Z,16.80
2022-12-26T17:11:36.642Z,21.93
2022-12-26T17:14:05.663Z,30.60
2022-12-26T17:16:33.942Z,18.10
2022-12-26T17:19:12.936Z,19.43
2022-12-26T17:21:41.089Z,19.50
2022-12-26T17:24:27.599Z,16.73
2022-12-26T17:27:10.395Z,17.53
2022-12-26T17:29:55.707Z,17.63
2022-12-26T17:32:35.449Z,15.43
2022-12-26T17:35:12.308Z,15.70
2022-12-26T17:37:40.490Z,16.37
2022-12-26T17:40:21.546Z,15.77
2022-12-26T17:42:52.390Z,18.00
2022-12-26T17:45:21.766Z,17.40
2022-12-26T17:47:51.692Z,18.37
2022-12-26T17:50:21.219Z,19.47
2022-12-26T17:52:49.366Z,18.30
2022-12-26T17:55:19.846Z,17.13
2022-12-26T17:57:48.120Z,18.03
2022-12-26T18:00:18.257Z,19.67
2022-12-26T18:02:46.504Z,17.30
2022-12-26T18:05:14.982Z,18.10
2022-12-26T18:07:44.605Z,19.67
2022-12-26T18:10:18.072Z,19.30
2022-12-26T18:12:46.265Z,18.40
2022-12-26T18:15:14.398Z,18.20
2022-12-26T18:17:42.548Z,17.87
2022-12-26T18:20:12.839Z,18.33
2022-12-26T18:22:40.993Z,16.67
2022-12-26T18:25:10.659Z,16.77
2022-12-26T18:27:38.861Z,16.93
2022-12-26T18:30:08.223Z,16.90
2022-12-26T18:32:36.381Z,16.80
2022-12-26T18:35:04.591Z,18.13
2022-12-26T18:37:32.756Z,18.90
2022-12-26T18:40:00.989Z,18.67
2022-12-26T18:42:30.822Z,18.20
2022-12-26T18:44:58.941Z,17.47
2022-12-26T18:47:27.275Z,16.70
2022-12-26T18:49:55.370Z,18.90
2022-12-26T18:52:23.511Z,19.43
2022-12-26T18:54:51.728Z,20.00
2022-12-26T18:57:20.937Z,19.33
2022-12-26T18:59:50.481Z,17.70
2022-12-26T19:02:19.640Z,17.30
2022-12-26T19:04:48.674Z,17.47
2022-12-26T19:07:17.372Z,17.07
2022-12-26T19:09:45.689Z,17.53
2022-12-26T19:12:13.871Z,19.80
2022-12-26T19:14:42.051Z,19.33
2022-12-26T19:17:11.596Z,20.30
2022-12-26T19:19:40.204Z,20.03
2022-12-26T19:22:08.678Z,18.97
2022-12-26T19:24:36.806Z,18.03
2022-12-26T19:27:05.026Z,17.33
2022-12-26T19:29:33.296Z,19.13
2022-12-26T19:32:01.519Z,18.03
2022-12-26T19:34:31.128Z,17.77
2022-12-26T19:36:59.403Z,16.87
2022-12-26T19:39:27.766Z,17.10
2022-12-26T19:41:55.866Z,16.13
2022-12-26T19:44:24.028Z,16.37
2022-12-26T19:47:11.519Z,16.17
2022-12-26T19:49:41.907Z,18.03
2022-12-26T19:52:10.303Z,16.17
2022-12-26T19:54:38.469Z,16.40
2022-12-26T19:57:06.706Z,16.23
2022-12-26T19:59:34.998Z,16.20
2022-12-26T20:02:03.263Z,16.17
2022-12-26T20:04:31.803Z,17.00
2022-12-26T20:07:01.491Z,17.53
2022-12-26T20:09:29.582Z,16.77
2022-12-26T20:11:57.893Z,15.83
2022-12-26T20:14:27.183Z,16.50
2022-12-26T20:17:06.240Z,15.97
2022-12-26T20:19:35.317Z,15.97
2022-12-26T20:22:04.956Z,15.83
2022-12-26T20:24:33.227Z,17.70
2022-12-26T20:27:01.486Z,17.40
2022-12-26T20:29:29.760Z,17.67
2022-12-26T20:31:58.984Z,18.20
2022-12-26T20:34:27.266Z,18.03
2022-12-26T20:36:55.435Z,17.53
2022-12-26T20:39:26.096Z,18.13
2022-12-26T20:41:54.450Z,18.70
2022-12-26T20:44:22.565Z,18.43
2022-12-26T20:46:50.721Z,19.20
2022-12-26T20:49:18.824Z,20.00
2022-12-26T20:51:47.199Z,19.63
2022-12-26T20:54:15.916Z,19.30
2022-12-26T20:56:45.485Z,19.40
2022-12-26T20:59:13.847Z,18.83
2022-12-26T21:01:42.018Z,19.23
2022-12-26T21:04:11.513Z,18.30
2022-12-26T21:06:40.880Z,20.47
2022-12-26T21:09:09.215Z,20.60
2022-12-26T21:11:38.741Z,23.37
2022-12-26T21:14:09.167Z,21.20
2022-12-26T21:16:38.690Z,21.47
2022-12-26T21:19:12.463Z,21.33
2022-12-26T21:21:44.220Z,19.53
2022-12-26T21:24:13.599Z,19.73
2022-12-26T21:26:42.552Z,21.73
2022-12-26T21:29:14.599Z,22.47
2022-12-26T21:31:42.723Z,22.80
2022-12-26T21:34:11.849Z,22.97
2022-12-26T21:36:40.183Z,22.53
2022-12-26T21:39:08.935Z,21.93
2022-12-26T21:41:37.245Z,23.17
2022-12-26T21:44:05.756Z,22.73
2022-12-26T21:46:35.360Z,23.87
2022-12-26T21:49:03.739Z,24.27
2022-12-26T21:51:32.313Z,23.13
2022-12-26T21:54:14.276Z,22.80
2022-12-26T21:56:42.458Z,22.10
2022-12-26T21:59:28.154Z,22.50
2022-12-26T22:01:57.864Z,24.87
2022-12-26T22:04:25.206Z,27.20
2022-12-26T22:06:53.381Z,26.30
2022-12-26T22:09:21.814Z,25.07
2022-12-26T22:12:07.062Z,23.17
2022-12-26T22:14:35.218Z,24.97
2022-12-26T22:17:04.730Z,24.03
2022-12-26T22:19:32.858Z,23.77
2022-12-26T22:22:01.044Z,24.43
2022-12-26T22:24:29.162Z,24.37
2022-12-26T22:26:57.344Z,26.27
2022-12-26T22:29:25.441Z,27.00
2022-12-26T22:31:53.707Z,28.53
2022-12-26T22:34:23.193Z,24.93
2022-12-26T22:36:51.270Z,23.10
2022-12-26T22:39:19.370Z,22.83
2022-12-26T22:41:47.778Z,20.83
2022-12-26T22:44:16.086Z,20.33
2022-12-26T22:46:44.347Z,22.33
2022-12-26T22:49:12.634Z,19.77
2022-12-26T22:51:42.223Z,20.40
2022-12-26T22:54:10.357Z,20.73
2022-12-26T22:56:38.425Z,20.07
2022-12-26T22:59:06.566Z,22.03
2022-12-26T23:01:34.862Z,22.17
2022-12-26T23:04:03.774Z,23.27
2022-12-26T23:06:33.549Z,22.30
2022-12-26T23:09:04.842Z,19.33
2022-12-26T23:11:35.397Z,19.77
2022-12-26T23:14:04.926Z,17.50
2022-12-26T23:16:34.681Z,19.23
2022-12-26T23:19:21.847Z,16.43
2022-12-26T23:21:50.649Z,16.53
2022-12-26T23:24:21.495Z,15.77
2022-12-26T23:26:50.581Z,15.10
2022-12-26T23:29:37.351Z,16.57
2022-12-26T23:32:06.119Z,16.20
2022-12-26T23:34:34.348Z,16.80
2022-12-26T23:37:02.530Z,18.73
2022-12-26T23:39:32.012Z,18.20
2022-12-26T23:42:00.147Z,18.93
2022-12-26T23:44:28.260Z,17.87
2022-12-26T23:46:56.577Z,17.90
2022-12-26T23:49:24.743Z,17.97
2022-12-26T23:51:52.816Z,16.93
2022-12-26T23:54:20.918Z,16.47
2022-12-26T23:56:50.409Z,17.27
2022-12-26T23:59:18.533Z,18.70
